KCCY/CCY METAR and TAF weather

Enter ICAO airport designator
Station Type Date Time Source
KCCY METAR 2019/08/19 23:35 UTC NOAA

KCCY 192335Z AUTO 13004KT 10SM CLR 25/17 A3001 RMK AO2


Station Type Date Time Source
KCCY Decoded METAR 2019/08/19 23:35 UTC NOAA

Charles City, IA, United States (KCCY) 43-04N 092-37W
Aug 19, 2019 - 07:35 PM EDT / 2019.08.19 2335 UTC
Wind: from the SE (130 degrees) at 5 MPH (4 KT):0
Visibility: 10 mile(s):0
Sky conditions: clear
Temperature: 77 F (25 C)
Dew Point: 62 F (17 C)
Relative Humidity: 61%
Pressure (altimeter): 30.01 in. Hg (1016 hPa)
ob: KCCY 192335Z AUTO 13004KT 10SM CLR 25/17 A3001 RMK AO2
cycle: 23

Station Type Date Time Source
KCCY TAF UTC NOAA

Error!

Example: see airport list